If you wish to contribute or participate in the discussions about articles you are invited to join SKYbrary as a registered user

 Actions

Shiraz International Airport

From SKYbrary Wiki

OISS
Airport
ICAO: OISS – IATA: SYZ
Summary
Name Shiraz International Airport
Region Middle East
Territory Iran IR.gif
Location Shiraz, Fars Province
Serving Shiraz
Elevation 1,499.616 m
4,920 ft1,499.616 m
Coordinates 29° 32' 21.00" N, 52° 35' 24.00" E
Runways
Designator Length Width Surface ROPS
11L/29R 4372 m14,343.832 ft
45 m147.638 ft
ASP yes/yes
11R/29L 4283 m14,051.837 ft
45 m147.638 ft
ASP yes/yes


METAR
Observation OISS 241800Z 30006KT CAVOK 13/M06 Q1018 A3006
Station Shiraz
Date/Time 24 April 2019 18:00:00
Wind direction 300°
Wind speed 06 kts
Lowest cloud amount clouds and visibility OK
Temperature 13°C
Dew point
Humidity 26%
QNH 1018 hPa
Weather condition n/a

Shiraz International Airport is located in Shiraz, Iran. It is the main international airport of Fars province.

Climatology

Cold Semi-arid climate (Köppen climate classification BSk). - Hot, sometimes extremely hot summers and cold, sometimes very cold winters. Some snowfall during the winter. Areas featuring cold semi-arid climates are sometimes subject to major temperature swings during a 24 hour period.

Maps

Terrain

Loading map...

Airport Layout

Loading map...


Accidents & Serious Incidents at or in vicinity of OISS

None on SKYbrary